Time;durP1;ratioP1;P1;durP2;ratioP2;P2;SDS_P1;SDS_P2;PMS_P1;PMS_P2;Temp;Humidity;BMP_temperature;BMP_pressure;BME280_temperature;BME280_humidity;BME280_pressure;Samples;Min_cycle;Max_cycle;Signal;HPM_P1;HPM_P2
2021/12/16 00:02:45;;;;;;;57.47;23.67;;;8.70;87.40;;;;;;5093063;28;20277;-78
2021/12/16 00:05:28;;;;;;;57.03;22.80;;;8.70;87.30;;;;;;5097639;28;20818;-78
2021/12/16 00:08:00;;;;;;;57.37;23.53;;;8.70;87.20;;;;;;5103958;28;20198;-77
2021/12/16 00:10:34;;;;;;;56.03;23.80;;;8.80;87.20;;;;;;5102224;28;20201;-78
2021/12/16 00:32:44;;;;;;;57.57;23.47;;;8.90;87.60;;;;;;5100566;28;20185;-78
2021/12/16 00:35:17;;;;;;;60.87;24.07;;;8.90;87.60;;;;;;5098204;28;20217;-78
2021/12/16 00:37:46;;;;;;;53.27;23.53;;;9.00;87.70;;;;;;5104533;28;20208;-79
2021/12/16 00:40:14;;;;;;;57.27;23.90;;;9.10;87.60;;;;;;5101166;28;20197;-78
2021/12/16 00:42:49;;;;;;;47.93;21.83;;;9.10;87.50;;;;;;5103946;28;20196;-78
2021/12/16 00:45:34;;;;;;;54.27;23.23;;;9.10;87.40;;;;;;5097923;28;20530;-79
2021/12/16 00:48:19;;;;;;;61.33;23.50;;;9.20;87.20;;;;;;5102253;28;20184;-79
2021/12/16 00:56:21;;;;;;;52.97;22.17;;;9.30;86.90;;;;;;5092621;28;20207;-79
2021/12/16 00:58:56;;;;;;;51.03;23.47;;;9.30;86.80;;;;;;5095545;28;20185;-79
2021/12/16 01:01:40;;;;;;;52.93;22.37;;;9.40;86.50;;;;;;5104248;27;20268;-79
2021/12/16 01:04:25;;;;;;;50.87;22.77;;;9.40;86.50;;;;;;5091749;28;20688;-81
2021/12/16 01:07:18;;;;;;;46.60;20.83;;;9.40;86.30;;;;;;5097240;28;20192;-80
2021/12/16 01:35:04;;;;;;;48.10;20.87;;;9.60;85.00;;;;;;5097702;28;20209;-80
2021/12/16 01:40:42;;;;;;;51.57;22.17;;;9.60;85.00;;;;;;5093972;28;20185;-80
2021/12/16 01:46:30;;;;;;;52.13;22.13;;;9.70;84.80;;;;;;5095960;28;20650;-79
2021/12/16 01:49:30;;;;;;;57.40;22.20;;;9.80;84.60;;;;;;5093837;28;20479;-79
2021/12/16 01:52:20;;;;;;;47.30;20.23;;;9.70;84.30;;;;;;5096617;28;20193;-79
2021/12/16 01:55:02;;;;;;;51.00;20.50;;;9.70;84.30;;;;;;5102587;28;20205;-79
2021/12/16 01:57:38;;;;;;;47.97;21.63;;;9.70;84.30;;;;;;5092189;28;20189;-79
2021/12/16 02:00:11;;;;;;;52.10;21.23;;;9.70;84.10;;;;;;5093811;28;20558;-79
2021/12/16 02:02:45;;;;;;;42.40;18.60;;;9.70;84.30;;;;;;5094826;28;20204;-80
2021/12/16 02:05:28;;;;;;;52.07;19.47;;;9.70;84.20;;;;;;5091906;28;20189;-80
2021/12/16 02:08:22;;;;;;;49.20;20.20;;;9.70;84.10;;;;;;5094612;28;20234;-80
2021/12/16 02:11:17;;;;;;;48.07;20.30;;;9.60;84.00;;;;;;5097600;28;20674;-82
2021/12/16 02:28:09;;;;;;;48.53;18.03;;;9.60;84.30;;;;;;5090452;28;20205;-80
2021/12/16 02:33:51;;;;;;;49.93;19.07;;;9.60;84.30;;;;;;5091794;28;20191;-78
2021/12/16 02:36:26;;;;;;;43.33;18.47;;;9.60;84.00;;;;;;5092022;28;20243;-80
2021/12/16 02:39:03;;;;;;;43.47;18.30;;;9.50;83.80;;;;;;5094689;28;20185;-79
2021/12/16 02:41:32;;;;;;;47.23;19.57;;;9.50;84.00;;;;;;5100362;28;20185;-79
2021/12/16 02:44:15;;;;;;;44.37;17.83;;;9.50;84.00;;;;;;5099134;28;20189;-79
2021/12/16 02:49:31;;;;;;;49.47;19.17;;;9.50;84.10;;;;;;5097921;28;20851;-79
2021/12/16 02:52:00;;;;;;;51.57;19.60;;;9.40;84.10;;;;;;5105473;28;20188;-78
2021/12/16 02:54:30;;;;;;;55.50;19.03;;;9.40;84.20;;;;;;5099016;28;20196;-79
2021/12/16 02:56:59;;;;;;;45.60;18.80;;;9.40;84.30;;;;;;5098533;28;20228;-80
2021/12/16 02:59:29;;;;;;;48.70;19.43;;;9.30;84.40;;;;;;5101546;28;20280;-80
2021/12/16 03:02:05;;;;;;;49.13;19.93;;;9.30;84.60;;;;;;5106565;27;20177;-79
2021/12/16 03:04:34;;;;;;;47.47;18.63;;;9.30;84.60;;;;;;5102599;28;20538;-79
2021/12/16 03:07:04;;;;;;;54.13;19.37;;;9.30;84.60;;;;;;5102639;28;20204;-80
2021/12/16 03:10:05;;;;;;;48.10;19.43;;;9.30;84.60;;;;;;5100272;28;20209;-80
2021/12/16 03:15:35;;;;;;;46.37;19.40;;;9.30;84.50;;;;;;5104331;28;20196;-80
2021/12/16 03:18:13;;;;;;;50.87;18.13;;;9.40;84.40;;;;;;5102315;28;20193;-80
2021/12/16 03:20:46;;;;;;;47.90;17.43;;;9.40;84.30;;;;;;5098855;28;20197;-80
2021/12/16 03:23:32;;;;;;;43.73;18.97;;;9.30;84.20;;;;;;5097790;28;20190;-79
2021/12/16 03:26:31;;;;;;;49.57;18.73;;;9.30;84.10;;;;;;5098708;28;20229;-80
2021/12/16 03:32:17;;;;;;;43.83;18.33;;;9.30;84.00;;;;;;5047773;28;20699;-80
2021/12/16 03:34:59;;;;;;;54.17;17.87;;;9.20;83.80;;;;;;5102036;28;20193;-80
2021/12/16 03:37:29;;;;;;;41.73;17.53;;;9.20;84.10;;;;;;5093686;28;20216;-78
2021/12/16 03:40:01;;;;;;;49.07;18.13;;;9.20;84.00;;;;;;5094205;28;20185;-78
2021/12/16 03:42:34;;;;;;;41.20;17.60;;;9.20;83.90;;;;;;5100314;28;20191;-78
2021/12/16 03:46:24;;;;;;;45.27;18.70;;;9.20;83.80;;;;;;5103017;28;20181;-79
2021/12/16 03:47:58;;;;;;;44.93;17.93;;;9.20;83.90;;;;;;5100317;28;20223;-80
2021/12/16 03:50:27;;;;;;;45.97;18.40;;;9.20;84.00;;;;;;5096009;28;21151;-77
2021/12/16 03:52:56;;;;;;;47.77;19.53;;;9.20;84.10;;;;;;5096952;28;20185;-80
2021/12/16 03:55:24;;;;;;;49.60;18.67;;;9.20;84.20;;;;;;5095490;28;20216;-78
2021/12/16 03:57:54;;;;;;;46.73;19.53;;;9.20;84.30;;;;;;5095531;28;20235;-80
2021/12/16 04:00:26;;;;;;;52.90;20.20;;;9.30;84.30;;;;;;5097421;28;20230;-79
2021/12/16 04:02:56;;;;;;;50.37;18.50;;;9.30;84.30;;;;;;5100891;28;22049;-79
2021/12/16 04:05:25;;;;;;;50.43;18.73;;;9.30;84.10;;;;;;5104155;28;20202;-79
2021/12/16 04:07:54;;;;;;;50.20;20.43;;;9.40;84.30;;;;;;5100002;28;20200;-79
2021/12/16 04:10:31;;;;;;;50.80;20.13;;;9.40;84.00;;;;;;5097879;28;20181;-78
2021/12/16 04:13:04;;;;;;;46.10;18.77;;;9.40;84.00;;;;;;5100488;28;20527;-79
2021/12/16 04:15:34;;;;;;;47.50;19.77;;;9.40;83.90;;;;;;5105118;28;20196;-79
2021/12/16 04:18:04;;;;;;;57.97;23.10;;;9.40;83.80;;;;;;5096503;28;20455;-80
2021/12/16 04:20:53;;;;;;;48.33;19.13;;;9.40;84.00;;;;;;5103614;28;20628;-81
2021/12/16 04:23:22;;;;;;;55.27;19.27;;;9.40;84.00;;;;;;5092642;28;20189;-81
2021/12/16 04:25:51;;;;;;;55.00;19.80;;;9.40;83.90;;;;;;5094015;28;20258;-79
2021/12/16 04:28:24;;;;;;;48.80;18.00;;;9.40;83.90;;;;;;5097651;28;20204;-79
2021/12/16 04:30:54;;;;;;;49.60;20.73;;;9.40;83.80;;;;;;5102268;28;20189;-80
2021/12/16 04:33:23;;;;;;;54.40;18.90;;;9.40;83.70;;;;;;5097706;28;20292;-79
2021/12/16 04:35:51;;;;;;;52.37;19.27;;;9.40;83.70;;;;;;5101031;28;20196;-80
2021/12/16 04:38:20;;;;;;;52.30;19.83;;;9.50;83.80;;;;;;5100123;28;20189;-79
2021/12/16 04:40:49;;;;;;;44.53;18.63;;;9.50;83.50;;;;;;5100415;28;20201;-80
2021/12/16 04:43:21;;;;;;;48.00;19.47;;;9.50;83.40;;;;;;5092543;28;20201;-79
2021/12/16 04:45:51;;;;;;;49.53;19.37;;;9.50;83.30;;;;;;5101539;28;20209;-79
2021/12/16 04:48:20;;;;;;;43.93;18.00;;;9.50;83.30;;;;;;5103150;28;20185;-80
2021/12/16 04:50:49;;;;;;;41.67;16.40;;;9.50;83.30;;;;;;5102290;27;20204;-82
2021/12/16 04:53:18;;;;;;;43.40;17.47;;;9.50;83.40;;;;;;5097923;28;20682;-81
2021/12/16 04:55:46;;;;;;;42.43;16.17;;;9.50;83.30;;;;;;5101246;28;20661;-79
2021/12/16 04:58:15;;;;;;;46.53;16.97;;;9.50;83.30;;;;;;5101640;28;20220;-78
2021/12/16 05:00:43;;;;;;;46.77;17.17;;;9.50;83.00;;;;;;5101777;28;20185;-79
2021/12/16 05:03:13;;;;;;;40.33;16.77;;;9.50;83.00;;;;;;5102831;28;20185;-81
2021/12/16 05:05:42;;;;;;;45.30;17.47;;;9.50;83.00;;;;;;5102352;27;20188;-79
2021/12/16 05:08:10;;;;;;;40.23;16.63;;;9.50;82.70;;;;;;5102343;28;20220;-78
2021/12/16 05:10:39;;;;;;;43.13;17.43;;;9.50;82.60;;;;;;5102363;28;20199;-79
2021/12/16 05:13:08;;;;;;;39.97;16.67;;;9.50;82.70;;;;;;5100135;28;20193;-79
2021/12/16 05:15:40;;;;;;;39.20;16.27;;;9.40;82.80;;;;;;5103380;28;20208;-79
2021/12/16 05:18:12;;;;;;;48.03;17.47;;;9.40;82.80;;;;;;5103670;28;20244;-81
2021/12/16 05:20:44;;;;;;;45.20;17.27;;;9.40;82.80;;;;;;5100360;28;20192;-79
2021/12/16 05:28:52;;;;;;;40.57;17.20;;;9.40;83.70;;;;;;5100920;28;20200;-79
2021/12/16 05:31:23;;;;;;;43.87;17.70;;;9.50;82.90;;;;;;5102692;28;20177;-78
2021/12/16 05:33:53;;;;;;;44.90;16.90;;;9.50;83.00;;;;;;5103521;28;20187;-79
2021/12/16 05:36:23;;;;;;;48.07;18.60;;;9.50;82.90;;;;;;5098790;28;20196;-79
2021/12/16 05:38:52;;;;;;;45.03;17.83;;;9.50;82.80;;;;;;5101800;28;20623;-79
2021/12/16 05:41:22;;;;;;;51.67;17.90;;;9.60;82.80;;;;;;5101240;28;20187;-79
2021/12/16 05:43:51;;;;;;;50.50;19.80;;;9.60;82.70;;;;;;5103768;28;20197;-79
2021/12/16 05:46:22;;;;;;;44.43;17.67;;;9.60;82.70;;;;;;5103545;28;20196;-79
2021/12/16 05:48:52;;;;;;;42.70;18.23;;;9.60;82.50;;;;;;5102666;28;20189;-79
2021/12/16 05:51:24;;;;;;;47.40;16.67;;;9.60;82.40;;;;;;5102441;28;20692;-79
2021/12/16 05:53:54;;;;;;;47.10;16.63;;;9.70;82.50;;;;;;5104795;28;20227;-80
2021/12/16 05:56:23;;;;;;;43.83;16.40;;;9.70;82.40;;;;;;5097095;28;20186;-78
2021/12/16 05:58:51;;;;;;;50.77;17.73;;;9.70;82.30;;;;;;5104140;28;20732;-78
2021/12/16 06:01:23;;;;;;;55.10;18.73;;;9.70;82.30;;;;;;5103014;28;20199;-79
2021/12/16 06:03:52;;;;;;;47.27;16.60;;;9.70;81.90;;;;;;5103519;28;20189;-79
2021/12/16 06:06:21;;;;;;;54.27;19.27;;;9.70;82.10;;;;;;5101944;28;20193;-79
2021/12/16 06:08:51;;;;;;;43.07;16.60;;;9.70;81.90;;;;;;5102493;28;20207;-78
2021/12/16 06:11:25;;;;;;;48.53;17.37;;;9.70;81.90;;;;;;5102047;28;20185;-79
2021/12/16 06:14:03;;;;;;;52.13;18.60;;;9.70;81.90;;;;;;5104040;28;20190;-78
2021/12/16 06:27:39;;;;;;;44.43;18.40;;;9.70;81.90;;;;;;5101337;28;20238;-78
2021/12/16 06:30:09;;;;;;;43.47;17.23;;;9.70;81.90;;;;;;5101321;28;20848;-78
2021/12/16 06:32:38;;;;;;;44.57;18.17;;;9.70;81.80;;;;;;5100599;28;20192;-79
2021/12/16 06:35:09;;;;;;;50.27;17.87;;;9.70;82.20;;;;;;5103010;28;20208;-78
2021/12/16 06:37:38;;;;;;;47.33;17.13;;;9.60;81.20;;;;;;5099984;28;20738;-79
2021/12/16 06:40:11;;;;;;;41.77;16.90;;;9.60;81.50;;;;;;5101393;28;20634;-78
2021/12/16 06:42:41;;;;;;;40.40;17.03;;;9.60;81.60;;;;;;5090941;28;20189;-78
2021/12/16 06:45:15;;;;;;;43.73;16.93;;;9.60;81.60;;;;;;5103477;28;20228;-79
2021/12/16 06:47:48;;;;;;;48.25;19.98;;;9.60;81.50;;;;;;5100305;28;20447;-78
2021/12/16 06:50:31;;;;;;;42.07;18.10;;;9.60;82.10;;;;;;5100971;28;20178;-79
2021/12/16 06:53:02;;;;;;;40.00;16.83;;;9.60;82.00;;;;;;5101345;28;20862;-78
2021/12/16 06:55:39;;;;;;;42.47;17.63;;;9.60;81.80;;;;;;5100490;28;20185;-78
2021/12/16 06:58:17;;;;;;;48.20;18.60;;;9.60;81.80;;;;;;5097858;28;20296;-78
2021/12/16 07:00:49;;;;;;;51.57;18.30;;;9.60;81.60;;;;;;5097348;28;20664;-78
2021/12/16 07:03:20;;;;;;;47.77;19.23;;;9.50;81.70;;;;;;5097303;28;20785;-78
2021/12/16 07:05:52;;;;;;;45.00;18.47;;;9.50;81.90;;;;;;5102601;28;20216;-78
2021/12/16 07:08:23;;;;;;;50.90;17.87;;;9.50;81.90;;;;;;5090715;28;20189;-78
2021/12/16 07:10:56;;;;;;;47.83;18.60;;;9.50;82.00;;;;;;5100407;28;20189;-77
2021/12/16 07:13:35;;;;;;;46.47;18.20;;;9.50;82.20;;;;;;5094341;28;20181;-78
2021/12/16 07:16:05;;;;;;;57.27;20.20;;;9.50;82.20;;;;;;5100075;28;20193;-78
2021/12/16 07:18:36;;;;;;;49.77;17.93;;;9.60;82.20;;;;;;5101525;28;20216;-78
2021/12/16 07:21:05;;;;;;;48.13;18.23;;;9.50;82.10;;;;;;5097560;28;20540;-78
2021/12/16 07:23:33;;;;;;;49.17;18.20;;;9.50;82.20;;;;;;5094480;28;20201;-76
2021/12/16 07:26:03;;;;;;;46.43;18.60;;;9.50;82.40;;;;;;5093833;28;20225;-77
2021/12/16 07:28:32;;;;;;;50.57;18.93;;;9.60;82.40;;;;;;5100575;28;20186;-77
2021/12/16 07:31:01;;;;;;;50.60;19.10;;;9.60;82.50;;;;;;5100751;28;20186;-79
2021/12/16 07:33:29;;;;;;;51.13;19.53;;;9.60;82.30;;;;;;5100492;28;20200;-78
2021/12/16 07:35:59;;;;;;;51.67;19.97;;;9.60;82.10;;;;;;5103843;28;20193;-78
2021/12/16 07:38:27;;;;;;;47.20;17.27;;;9.60;82.10;;;;;;5106221;28;20220;-78
2021/12/16 07:40:57;;;;;;;46.80;19.03;;;9.60;82.20;;;;;;5104026;27;20196;-79
2021/12/16 07:43:41;;;;;;;50.47;19.30;;;9.60;82.40;;;;;;5102788;28;20834;-79
2021/12/16 07:46:11;;;;;;;49.53;19.07;;;9.60;82.40;;;;;;5105729;28;20205;-78
2021/12/16 07:48:40;;;;;;;52.40;17.73;;;9.60;82.50;;;;;;5102899;28;20277;-77
2021/12/16 07:51:09;;;;;;;54.17;20.87;;;9.60;82.50;;;;;;5102884;28;20185;-78
2021/12/16 07:53:37;;;;;;;52.83;19.37;;;9.60;82.70;;;;;;5103402;28;20186;-79
2021/12/16 07:56:07;;;;;;;49.40;18.37;;;9.60;82.80;;;;;;5097388;28;20185;-78
2021/12/16 07:58:38;;;;;;;52.57;18.83;;;9.60;82.80;;;;;;5097505;28;20744;-79
2021/12/16 08:01:08;;;;;;;44.27;18.30;;;9.60;82.80;;;;;;5101649;27;20216;-77
2021/12/16 08:03:37;;;;;;;60.50;19.93;;;9.60;82.80;;;;;;5104127;28;20193;-78
2021/12/16 08:06:09;;;;;;;49.27;19.53;;;9.60;83.00;;;;;;5103989;28;20193;-79
2021/12/16 08:08:37;;;;;;;47.40;17.93;;;9.60;82.90;;;;;;5104136;28;20194;-80
2021/12/16 08:11:07;;;;;;;50.87;19.73;;;9.70;83.00;;;;;;5104498;28;20201;-78
2021/12/16 08:13:37;;;;;;;45.57;19.30;;;9.70;82.50;;;;;;5104893;28;20610;-78
2021/12/16 08:16:06;;;;;;;44.07;19.23;;;9.70;82.50;;;;;;5106010;28;20181;-78
2021/12/16 08:18:35;;;;;;;52.60;20.07;;;9.70;82.50;;;;;;5104868;28;20232;-78
2021/12/16 08:21:04;;;;;;;56.70;19.70;;;9.70;82.60;;;;;;5104951;28;20272;-78
2021/12/16 08:23:33;;;;;;;52.40;20.17;;;9.70;82.50;;;;;;5105647;27;20197;-78
2021/12/16 08:26:02;;;;;;;42.23;17.60;;;9.70;82.50;;;;;;5106131;28;20227;-78
2021/12/16 08:28:31;;;;;;;49.83;19.90;;;9.70;82.70;;;;;;5101889;27;20197;-79
2021/12/16 08:31:01;;;;;;;56.70;25.47;;;9.70;82.40;;;;;;5104055;28;20228;-78
2021/12/16 08:33:29;;;;;;;53.50;21.87;;;9.70;82.30;;;;;;5104004;28;20275;-79
2021/12/16 08:35:58;;;;;;;44.57;18.63;;;9.70;82.30;;;;;;5092794;28;20240;-77
2021/12/16 08:38:27;;;;;;;50.63;18.90;;;9.70;82.40;;;;;;5106103;28;20217;-78
2021/12/16 08:40:59;;;;;;;53.33;22.20;;;9.60;82.40;;;;;;5099975;28;20436;-79
2021/12/16 08:43:27;;;;;;;51.43;19.07;;;9.70;82.80;;;;;;5104356;28;20189;-79
2021/12/16 08:45:56;;;;;;;48.87;21.43;;;9.70;83.00;;;;;;5091280;28;20193;-78
2021/12/16 08:48:27;;;;;;;52.37;20.47;;;9.70;82.80;;;;;;5105758;28;20193;-78
2021/12/16 08:50:57;;;;;;;51.00;19.67;;;9.70;82.70;;;;;;5106790;28;20666;-78
2021/12/16 08:53:25;;;;;;;47.80;20.20;;;9.70;83.70;;;;;;5102321;28;20204;-78
2021/12/16 08:55:55;;;;;;;47.87;20.57;;;9.80;82.80;;;;;;5101951;28;20193;-77
2021/12/16 08:58:24;;;;;;;51.43;20.43;;;9.80;82.60;;;;;;5098269;28;20189;-78
2021/12/16 09:00:58;;;;;;;52.73;19.60;;;9.80;82.50;;;;;;5099765;28;20555;-77
2021/12/16 09:03:29;;;;;;;48.97;18.43;;;9.80;82.30;;;;;;5101966;28;20272;-77
2021/12/16 09:05:58;;;;;;;50.80;19.93;;;9.80;82.30;;;;;;5104840;28;20181;-78
2021/12/16 09:08:27;;;;;;;44.50;18.50;;;9.80;82.40;;;;;;5102245;28;20266;-77
2021/12/16 09:10:56;;;;;;;48.60;19.53;;;9.80;82.20;;;;;;5104018;28;20215;-78
2021/12/16 09:13:25;;;;;;;48.53;20.03;;;9.90;82.30;;;;;;5103864;28;20199;-77
2021/12/16 09:15:56;;;;;;;44.30;19.37;;;9.80;81.90;;;;;;5101492;28;20193;-79
2021/12/16 09:18:29;;;;;;;48.53;19.07;;;9.90;82.40;;;;;;5103529;28;20189;-77
2021/12/16 09:21:00;;;;;;;44.57;18.17;;;10.00;82.50;;;;;;5101979;28;20719;-77
2021/12/16 09:23:39;;;;;;;48.60;19.57;;;10.10;82.40;;;;;;5100020;28;21544;-77
2021/12/16 09:26:08;;;;;;;46.83;18.60;;;10.20;82.00;;;;;;5101759;28;20216;-77
2021/12/16 09:28:38;;;;;;;45.73;18.37;;;10.20;82.20;;;;;;5086844;28;20447;-78
2021/12/16 09:31:10;;;;;;;46.90;19.67;;;10.30;82.10;;;;;;5092515;28;20655;-77
2021/12/16 09:33:43;;;;;;;43.13;17.77;;;10.40;82.00;;;;;;5100558;28;20197;-77
2021/12/16 09:36:13;;;;;;;48.33;20.50;;;10.50;82.00;;;;;;5102690;28;20196;-81
2021/12/16 09:38:42;;;;;;;42.27;18.40;;;10.50;81.70;;;;;;5104806;28;20312;-78
2021/12/16 09:41:11;;;;;;;45.20;18.90;;;10.60;81.50;;;;;;5101747;28;20189;-78
2021/12/16 09:43:41;;;;;;;47.80;18.87;;;10.60;81.10;;;;;;5096098;28;20814;-77
2021/12/16 09:46:13;;;;;;;42.47;17.90;;;10.60;81.00;;;;;;5098442;28;20186;-78
2021/12/16 09:48:43;;;;;;;41.10;18.23;;;10.70;81.10;;;;;;5102013;28;20189;-77
2021/12/16 09:51:17;;;;;;;37.67;15.73;;;10.70;81.10;;;;;;5101325;28;20181;-78
2021/12/16 09:53:52;;;;;;;38.47;17.07;;;10.70;80.80;;;;;;5096348;27;20193;-78
2021/12/16 09:56:23;;;;;;;45.43;18.07;;;10.80;80.60;;;;;;5102580;28;20193;-78
2021/12/16 09:58:53;;;;;;;43.63;18.13;;;10.80;79.70;;;;;;5096009;28;20705;-77
2021/12/16 10:01:23;;;;;;;35.60;16.23;;;10.70;79.20;;;;;;5087448;28;20520;-78
2021/12/16 10:04:02;;;;;;;37.53;14.77;;;10.70;78.90;;;;;;5098451;28;20196;-77
2021/12/16 10:06:31;;;;;;;44.33;17.30;;;10.70;78.80;;;;;;5099333;28;20256;-78
2021/12/16 10:09:01;;;;;;;45.47;18.13;;;10.70;78.90;;;;;;5101639;28;20212;-78
2021/12/16 10:11:31;;;;;;;37.50;17.13;;;10.70;79.10;;;;;;5101000;28;20646;-77
2021/12/16 10:14:04;;;;;;;36.73;17.50;;;10.60;79.30;;;;;;5098626;28;20197;-77
2021/12/16 10:19:24;;;;;;;43.03;17.93;;;10.60;79.50;;;;;;5101486;28;20205;-78
2021/12/16 10:21:54;;;;;;;40.33;16.57;;;10.60;79.40;;;;;;5101836;27;20588;-79
2021/12/16 10:24:25;;;;;;;41.93;17.00;;;10.60;79.40;;;;;;5096382;28;20185;-78
2021/12/16 10:27:08;;;;;;;36.33;16.33;;;10.60;79.20;;;;;;5081999;28;20200;-78
2021/12/16 10:29:40;;;;;;;41.23;18.00;;;10.60;79.40;;;;;;5076233;28;20189;-77
2021/12/16 10:32:38;;;;;;;41.33;18.53;;;10.60;79.50;;;;;;5079230;28;20675;-77
2021/12/16 10:35:13;;;;;;;43.87;17.67;;;10.50;79.10;;;;;;5072198;28;20189;-77
2021/12/16 10:37:44;;;;;;;43.07;16.83;;;10.50;79.30;;;;;;5080441;28;20856;-78
2021/12/16 10:40:36;;;;;;;43.50;18.33;;;10.40;79.40;;;;;;5079485;28;20221;-78
2021/12/16 10:43:08;;;;;;;42.17;17.33;;;10.40;79.50;;;;;;5077939;28;20192;-78
2021/12/16 10:45:40;;;;;;;41.17;17.87;;;10.40;79.70;;;;;;5078775;28;20194;-76
2021/12/16 10:48:12;;;;;;;41.87;18.93;;;10.40;80.00;;;;;;5063633;28;20179;-77
2021/12/16 10:51:13;;;;;;;41.23;18.07;;;10.40;80.20;;;;;;5067158;28;20651;-76
2021/12/16 10:54:06;;;;;;;42.00;17.07;;;10.40;80.40;;;;;;5081049;28;20173;-76
2021/12/16 10:56:41;;;;;;;46.07;18.47;;;10.30;80.10;;;;;;5079396;28;20212;-77
2021/12/16 10:59:14;;;;;;;43.50;17.17;;;10.30;80.20;;;;;;5079747;28;20178;-76
2021/12/16 11:01:52;;;;;;;43.07;18.20;;;10.30;80.40;;;;;;5079228;28;20181;-76
2021/12/16 11:04:28;;;;;;;41.97;17.50;;;10.20;80.40;;;;;;5079276;28;20709;-76
2021/12/16 11:07:01;;;;;;;40.67;16.60;;;10.20;80.50;;;;;;5077514;28;20274;-77
2021/12/16 11:09:53;;;;;;;41.30;15.50;;;10.10;80.40;;;;;;5080040;28;20186;-76
2021/12/16 11:12:40;;;;;;;38.13;16.87;;;10.20;80.50;;;;;;5075670;28;20702;-76
2021/12/16 11:15:14;;;;;;;42.13;19.13;;;10.20;80.70;;;;;;5083340;28;20455;-75
2021/12/16 11:17:46;;;;;;;42.70;17.67;;;10.20;80.80;;;;;;5078384;28;20196;-76
2021/12/16 11:20:25;;;;;;;41.93;17.53;;;10.20;80.90;;;;;;5084896;28;20228;-77
2021/12/16 11:22:59;;;;;;;44.47;18.43;;;10.20;80.80;;;;;;5084288;28;20224;-76
2021/12/16 11:25:30;;;;;;;48.90;21.03;;;10.20;80.60;;;;;;5076381;28;20229;-76
2021/12/16 11:28:12;;;;;;;48.53;20.77;;;10.10;80.60;;;;;;5082144;28;20190;-77
2021/12/16 11:30:45;;;;;;;54.70;20.70;;;10.10;81.70;;;;;;5083583;28;20193;-77
2021/12/16 11:33:26;;;;;;;57.50;20.53;;;10.10;81.50;;;;;;5081952;28;20186;-77
2021/12/16 11:36:07;;;;;;;52.97;19.50;;;10.00;81.70;;;;;;5080890;28;20438;-77
2021/12/16 11:41:28;;;;;;;47.83;20.23;;;10.00;82.20;;;;;;5081276;28;20213;-77
2021/12/16 11:44:04;;;;;;;53.37;20.67;;;9.90;82.20;;;;;;5081511;28;20182;-76
2021/12/16 11:46:36;;;;;;;54.67;21.20;;;9.90;82.20;;;;;;5085329;28;20224;-77
2021/12/16 11:49:22;;;;;;;53.30;21.93;;;9.90;82.30;;;;;;5082484;28;20205;-77
2021/12/16 11:51:58;;;;;;;48.67;20.60;;;9.80;82.50;;;;;;5085797;28;20174;-77
2021/12/16 11:54:34;;;;;;;57.70;22.87;;;9.80;82.70;;;;;;5083088;28;20181;-76
2021/12/16 11:57:08;;;;;;;56.57;21.47;;;9.80;83.00;;;;;;5085464;28;20595;-77
2021/12/16 11:59:40;;;;;;;52.07;21.13;;;9.80;83.00;;;;;;5083835;28;20197;-77
2021/12/16 12:02:25;;;;;;;53.23;21.77;;;9.70;83.00;;;;;;5079583;28;20228;-76
2021/12/16 12:04:55;;;;;;;50.47;19.90;;;9.70;82.90;;;;;;5082300;28;20193;-76
2021/12/16 12:07:23;;;;;;;53.77;20.20;;;9.70;83.00;;;;;;5084800;28;20192;-76
2021/12/16 12:09:54;;;;;;;54.37;20.80;;;9.70;83.00;;;;;;5083603;28;20702;-76
2021/12/16 12:12:43;;;;;;;50.27;20.03;;;9.70;83.10;;;;;;5083306;28;20284;-76
2021/12/16 12:15:13;;;;;;;53.90;20.57;;;9.70;83.10;;;;;;5083745;28;20190;-76
2021/12/16 12:17:50;;;;;;;45.70;18.07;;;9.70;83.10;;;;;;5085549;28;20185;-76
2021/12/16 12:20:19;;;;;;;47.37;19.40;;;9.70;82.90;;;;;;5085141;28;20208;-76
2021/12/16 12:22:50;;;;;;;46.73;19.33;;;9.70;82.80;;;;;;5092053;28;20189;-76
2021/12/16 12:25:23;;;;;;;47.20;17.73;;;9.70;82.90;;;;;;5081864;28;20212;-75
2021/12/16 12:27:53;;;;;;;48.00;18.17;;;9.70;82.80;;;;;;5080442;28;20189;-76
2021/12/16 12:30:22;;;;;;;47.50;19.17;;;9.70;82.80;;;;;;5081889;28;20200;-75
2021/12/16 12:32:52;;;;;;;50.40;18.50;;;9.70;82.80;;;;;;5084386;28;20205;-76
2021/12/16 12:35:26;;;;;;;43.83;18.07;;;9.70;82.80;;;;;;5083788;28;20570;-75
2021/12/16 12:37:59;;;;;;;47.23;18.73;;;9.70;82.60;;;;;;5078688;28;20190;-77
2021/12/16 12:40:33;;;;;;;45.97;17.90;;;9.70;82.60;;;;;;5083855;28;20221;-76
2021/12/16 12:43:02;;;;;;;48.60;19.23;;;9.70;82.70;;;;;;5079420;28;20193;-76
2021/12/16 12:45:35;;;;;;;49.87;18.13;;;9.60;82.70;;;;;;5082614;28;20683;-76
2021/12/16 12:48:07;;;;;;;46.77;18.03;;;9.60;82.70;;;;;;5081352;28;20276;-76
2021/12/16 12:50:38;;;;;;;53.17;19.10;;;9.60;82.80;;;;;;5082859;28;20663;-75
2021/12/16 12:53:21;;;;;;;43.93;17.23;;;9.60;83.00;;;;;;5083022;28;20184;-76
2021/12/16 12:55:56;;;;;;;48.23;19.23;;;9.60;83.10;;;;;;5082287;28;20185;-76
2021/12/16 12:58:28;;;;;;;53.77;19.13;;;9.50;83.00;;;;;;5078984;28;20181;-76
2021/12/16 13:01:00;;;;;;;46.77;18.57;;;9.50;83.10;;;;;;5080986;28;20241;-76
2021/12/16 13:03:31;;;;;;;50.67;18.67;;;9.50;83.30;;;;;;5082510;28;20559;-75
2021/12/16 13:06:04;;;;;;;46.13;19.07;;;9.40;83.40;;;;;;5079031;28;20193;-75
2021/12/16 13:08:34;;;;;;;53.10;19.97;;;9.40;83.50;;;;;;5074441;28;20185;-76
2021/12/16 13:11:07;;;;;;;56.90;20.30;;;9.40;83.60;;;;;;5083681;28;20201;-77
2021/12/16 13:13:43;;;;;;;57.80;20.30;;;9.40;83.90;;;;;;5077977;28;20193;-77
2021/12/16 13:16:24;;;;;;;59.47;21.00;;;9.30;84.10;;;;;;5078564;28;20192;-76
2021/12/16 13:27:36;;;;;;;64.50;21.47;;;9.10;84.90;;;;;;5081498;28;20628;-76
2021/12/16 13:30:18;;;;;;;53.40;20.17;;;9.10;85.20;;;;;;5078702;28;20189;-77
2021/12/16 13:33:15;;;;;;;64.53;20.97;;;9.10;85.20;;;;;;5081436;28;20204;-77
2021/12/16 13:35:49;;;;;;;59.97;21.03;;;9.10;85.30;;;;;;5079447;28;20190;-77
2021/12/16 13:38:20;;;;;;;60.00;21.07;;;9.00;85.40;;;;;;5069863;28;20185;-77
2021/12/16 13:40:50;;;;;;;56.87;19.80;;;9.00;85.60;;;;;;5063612;28;20640;-77
2021/12/16 13:43:30;;;;;;;50.63;19.00;;;9.00;85.70;;;;;;5067715;28;20185;-76
2021/12/16 13:46:21;;;;;;;53.93;19.23;;;8.90;85.70;;;;;;5082285;28;20181;-77
2021/12/16 13:58:08;;;;;;;48.13;17.30;;;8.90;85.60;;;;;;5071573;28;20201;-77
2021/12/16 13:58:32;;;;;;;51.83;17.63;;;8.90;86.00;;;;;;5080024;28;20182;-75
2021/12/16 14:04:24;;;;;;;52.70;18.87;;;8.90;85.80;;;;;;5067004;28;20190;-75
2021/12/16 14:06:58;;;;;;;53.73;19.27;;;8.80;85.90;;;;;;5077678;28;20280;-76
2021/12/16 14:09:33;;;;;;;56.80;18.97;;;8.80;86.00;;;;;;5079545;28;20192;-76
2021/12/16 14:15:18;;;;;;;58.80;19.10;;;8.70;86.20;;;;;;5082758;28;20212;-76
2021/12/16 14:17:57;;;;;;;50.30;17.90;;;8.70;86.30;;;;;;5076624;28;20201;-76
2021/12/16 14:23:31;;;;;;;50.33;18.40;;;8.60;86.40;;;;;;5002576;28;20226;-76
2021/12/16 14:26:20;;;;;;;49.60;17.57;;;8.60;86.40;;;;;;5068780;28;20224;-76
2021/12/16 14:37:22;;;;;;;54.23;19.37;;;8.60;86.50;;;;;;5075279;28;20190;-76
2021/12/16 14:40:10;;;;;;;53.57;17.80;;;8.60;86.40;;;;;;5076784;28;20854;-76
2021/12/16 14:42:48;;;;;;;56.63;19.33;;;8.60;86.40;;;;;;5074779;28;20250;-76
2021/12/16 14:48:24;;;;;;;49.57;18.43;;;8.60;86.60;;;;;;5069347;28;20197;-76
2021/12/16 14:50:59;;;;;;;57.03;18.97;;;8.60;86.60;;;;;;5084576;28;20228;-77
2021/12/16 14:53:32;;;;;;;50.70;17.77;;;8.60;86.70;;;;;;5083401;28;20195;-76
2021/12/16 14:56:04;;;;;;;51.07;18.40;;;8.60;86.70;;;;;;5087849;28;20208;-77
2021/12/16 14:58:33;;;;;;;59.07;18.43;;;8.60;86.90;;;;;;5077456;28;20668;-76
2021/12/16 15:01:07;;;;;;;58.93;18.77;;;8.60;86.90;;;;;;5066474;28;21036;-77
2021/12/16 15:03:40;;;;;;;52.90;20.03;;;8.50;86.70;;;;;;5067838;28;20214;-77
2021/12/16 15:06:14;;;;;;;50.77;17.53;;;8.50;86.70;;;;;;5075852;28;20196;-76
2021/12/16 15:08:50;;;;;;;57.13;19.40;;;8.50;86.70;;;;;;5083783;28;20553;-76
2021/12/16 15:11:28;;;;;;;61.00;19.23;;;8.50;86.90;;;;;;5084378;28;20189;-76
2021/12/16 15:14:02;;;;;;;53.50;18.47;;;8.50;87.00;;;;;;5083662;28;20188;-76
2021/12/16 15:16:51;;;;;;;57.80;18.33;;;8.50;86.90;;;;;;5083904;28;20190;-77
2021/12/16 15:39:38;;;;;;;51.03;18.67;;;8.40;87.20;;;;;;5061017;28;20200;-76
2021/12/16 15:44:57;;;;;;;55.37;18.30;;;8.50;87.20;;;;;;5082798;28;20201;-76
2021/12/16 15:47:26;;;;;;;55.00;18.93;;;8.40;87.20;;;;;;5079096;28;20202;-76
2021/12/16 15:49:55;;;;;;;51.60;17.77;;;8.40;87.20;;;;;;5080765;28;20197;-76
2021/12/16 15:52:23;;;;;;;56.73;20.20;;;8.50;87.20;;;;;;5085587;28;20551;-76
2021/12/16 15:54:56;;;;;;;51.60;18.37;;;8.50;87.20;;;;;;5084691;28;20675;-76